CheckWX is a tool to help pilots better visualize weather data.  It is not intended as a substitute for an official pre-flight weather briefing.

07:42:23 UTC

KPUW METAR
Pullman / Moscow Regional Airport
Pullman/Moscow, Washington, USA
Current

49 mins ago

KPUW 210653Z AUTO 00000KT 10SM BKN060 OVC085 12/05 A2965 RMK AO2 SLP037 T01170050
Observed
May-21 @ 06:53 UTC
Visibility
10 SM
Flight Rules
VFR
Cloud Levels
  • Broken at 6,000' AGL
  • Overcast at 8,500' AGL
Temperature
12°C / 54°F
Dewpoint
C / 41°F
Humidity
63%
Altimeter
29.65" Hg
Pressure
1004.02 hPa
Previous

2 hours ago

KPUW 210553Z AUTO 03003KT 10SM OVC085 12/05 A2966 RMK AO2 SLP039 T01220050 10161 20117 58004
Observed
May-21 @ 05:53 UTC
Wind
  • 030° at 3 KTS
Visibility
10 SM
Flight Rules
VFR
Cloud Levels
  • Overcast at 8,500' AGL
Temperature
12°C / 54°F
Dewpoint
C / 41°F
Humidity
63%
Altimeter
29.66" Hg
Pressure
1004.42 hPa
Previous

3 hours ago

KPUW 210453Z AUTO 03005KT 10SM SCT065 OVC085 13/04 A2967 RMK AO2 SLP045 T01280044
Observed
May-21 @ 04:53 UTC
Wind
  • 030° at 5 KTS
Visibility
10 SM
Flight Rules
VFR
Cloud Levels
  • Scattered at 6,500' AGL
  • Overcast at 8,500' AGL
Temperature
13°C / 55°F
Dewpoint
C / 39°F
Humidity
55%
Altimeter
29.67" Hg
Pressure
1004.72 hPa